Time;durP1;ratioP1;P1;durP2;ratioP2;P2;SDS_P1;SDS_P2;PMS_P1;PMS_P2;Temp;Humidity;BMP_temperature;BMP_pressure;BME280_temperature;BME280_humidity;BME280_pressure;Samples;Min_cycle;Max_cycle;Signal;HPM_P1;HPM_P2
2022/04/10 00:00:22;;;;;;;7.20;3.23;;;3.80;99.90;;;;;;5005225;28;20446;-65
2022/04/10 00:02:49;;;;;;;3.40;2.50;;;3.80;99.90;;;;;;5007461;28;20474;-65
2022/04/10 00:05:16;;;;;;;5.73;3.60;;;3.80;99.90;;;;;;5016201;28;20445;-65
2022/04/10 00:07:43;;;;;;;5.13;3.33;;;3.70;99.90;;;;;;5006870;28;20549;-65
2022/04/10 00:10:10;;;;;;;6.03;2.93;;;3.70;99.90;;;;;;5008613;28;20489;-65
2022/04/10 00:12:37;;;;;;;4.60;3.40;;;3.70;99.90;;;;;;5010241;28;20928;-65
2022/04/10 00:15:05;;;;;;;5.60;3.10;;;3.80;99.90;;;;;;5009869;28;20965;-66
2022/04/10 00:17:33;;;;;;;7.33;2.73;;;3.80;99.90;;;;;;5010224;28;20450;-66
2022/04/10 00:20:00;;;;;;;4.40;2.73;;;3.90;99.90;;;;;;5010792;28;20454;-65
2022/04/10 00:22:27;;;;;;;4.00;2.50;;;3.90;99.90;;;;;;5009977;28;20554;-63
2022/04/10 00:24:54;;;;;;;4.30;2.60;;;4.00;99.90;;;;;;5009328;28;20464;-65
2022/04/10 00:27:21;;;;;;;6.47;3.50;;;4.10;99.90;;;;;;5007009;28;20544;-65
2022/04/10 00:29:48;;;;;;;5.97;3.30;;;4.10;99.90;;;;;;5006948;28;20489;-65
2022/04/10 00:32:15;;;;;;;5.83;3.10;;;4.10;99.90;;;;;;5007743;28;20547;-66
2022/04/10 00:34:43;;;;;;;5.70;2.90;;;4.10;99.90;;;;;;5006634;28;20461;-65
2022/04/10 00:37:10;;;;;;;4.70;3.03;;;4.00;99.90;;;;;;5006606;28;21014;-66
2022/04/10 00:39:37;;;;;;;3.70;2.47;;;4.00;99.90;;;;;;5006881;28;20457;-66
2022/04/10 00:42:04;;;;;;;5.10;3.37;;;3.90;99.90;;;;;;5007393;28;20485;-65
2022/04/10 00:44:33;;;;;;;5.60;3.17;;;3.80;99.90;;;;;;5006326;28;20556;-65
2022/04/10 00:47:00;;;;;;;7.07;3.00;;;3.80;99.90;;;;;;5006650;28;20456;-64
2022/04/10 00:49:27;;;;;;;5.07;3.10;;;3.80;99.90;;;;;;5006348;28;20538;-60
2022/04/10 00:51:56;;;;;;;7.53;3.40;;;3.80;99.90;;;;;;5007357;28;20496;-64
2022/04/10 00:54:25;;;;;;;6.20;3.90;;;3.80;99.90;;;;;;5007141;28;20446;-64
2022/04/10 00:56:53;;;;;;;8.87;3.90;;;3.80;99.90;;;;;;5010691;28;20458;-67
2022/04/10 00:59:20;;;;;;;5.77;3.00;;;3.80;99.90;;;;;;4995244;28;20450;-65
2022/04/10 01:01:48;;;;;;;5.60;3.27;;;3.90;99.90;;;;;;4992916;28;20451;-66
2022/04/10 01:04:16;;;;;;;5.60;3.60;;;3.80;99.90;;;;;;4992348;28;20438;-66
2022/04/10 01:06:44;;;;;;;6.07;3.17;;;3.80;99.90;;;;;;4992736;28;20450;-66
2022/04/10 01:09:12;;;;;;;5.80;3.80;;;3.70;99.90;;;;;;4992906;28;20474;-65
2022/04/10 01:11:39;;;;;;;4.97;3.47;;;3.70;99.90;;;;;;4992690;28;20522;-65
2022/04/10 01:14:06;;;;;;;4.60;3.27;;;3.60;99.90;;;;;;4992209;28;20450;-66
2022/04/10 01:16:35;;;;;;;4.13;3.37;;;3.60;99.90;;;;;;4992271;28;20465;-67
2022/04/10 01:19:03;;;;;;;6.37;3.73;;;3.60;99.90;;;;;;4992719;28;20473;-67
2022/04/10 01:21:33;;;;;;;4.43;3.50;;;3.50;99.90;;;;;;4991159;28;20513;-66
2022/04/10 01:24:02;;;;;;;5.37;3.63;;;3.60;99.90;;;;;;4992786;28;20988;-66
2022/04/10 01:26:30;;;;;;;7.07;3.40;;;3.70;99.90;;;;;;4992608;28;20534;-67
2022/04/10 01:28:58;;;;;;;5.03;3.90;;;3.70;99.90;;;;;;4992678;28;20546;-66
2022/04/10 01:31:25;;;;;;;4.77;3.87;;;3.80;99.90;;;;;;4992536;28;20450;-67
2022/04/10 01:33:54;;;;;;;4.73;3.60;;;3.90;99.90;;;;;;4992245;28;20522;-66
2022/04/10 01:36:22;;;;;;;6.60;4.10;;;4.00;99.90;;;;;;4991544;28;20450;-66
2022/04/10 01:38:49;;;;;;;7.27;3.83;;;4.10;99.90;;;;;;4992423;28;20520;-66
2022/04/10 01:41:18;;;;;;;5.03;3.90;;;4.20;99.90;;;;;;4992607;28;20802;-66
2022/04/10 01:43:46;;;;;;;4.00;3.60;;;4.30;99.90;;;;;;4992157;28;20525;-65
2022/04/10 01:46:13;;;;;;;6.50;3.47;;;4.40;99.90;;;;;;4991152;28;20449;-65
2022/04/10 01:48:40;;;;;;;4.43;3.73;;;4.50;99.90;;;;;;4991946;28;20443;-65
2022/04/10 01:51:08;;;;;;;4.73;4.00;;;4.50;99.90;;;;;;4992187;28;20573;-69
2022/04/10 01:53:35;;;;;;;3.87;3.47;;;4.50;99.90;;;;;;4993403;28;20470;-65
2022/04/10 01:56:02;;;;;;;6.47;3.30;;;4.50;99.90;;;;;;4991383;28;20443;-65
2022/04/10 01:58:31;;;;;;;3.63;2.87;;;4.40;99.90;;;;;;4991993;28;20458;-66
2022/04/10 02:00:57;;;;;;;4.57;3.23;;;4.20;99.90;;;;;;4991559;28;20451;-66
2022/04/10 02:03:24;;;;;;;7.57;3.40;;;4.10;99.90;;;;;;4991936;28;20554;-66
2022/04/10 02:05:51;;;;;;;4.97;3.60;;;4.00;99.90;;;;;;4990710;28;20836;-65
2022/04/10 02:08:18;;;;;;;4.53;3.63;;;4.00;99.90;;;;;;4991725;28;20988;-66
2022/04/10 02:10:45;;;;;;;7.80;3.60;;;4.00;99.90;;;;;;4991591;28;20479;-65
2022/04/10 02:13:12;;;;;;;6.10;3.47;;;3.90;99.90;;;;;;4991562;28;20507;-66
2022/04/10 02:15:41;;;;;;;5.83;4.00;;;3.80;99.90;;;;;;4990234;28;21056;-66
2022/04/10 02:18:08;;;;;;;6.90;3.90;;;3.80;99.90;;;;;;4991420;28;20447;-65
2022/04/10 02:20:35;;;;;;;4.90;3.70;;;3.80;99.90;;;;;;4991451;28;20457;-66
2022/04/10 02:23:02;;;;;;;7.03;3.50;;;3.80;99.90;;;;;;4991443;28;20473;-64
2022/04/10 02:25:28;;;;;;;5.30;3.60;;;3.80;99.90;;;;;;4990138;28;20553;-65
2022/04/10 02:27:55;;;;;;;6.43;4.10;;;3.80;99.90;;;;;;4991141;28;20538;-65
2022/04/10 02:30:22;;;;;;;5.23;4.53;;;3.80;99.90;;;;;;4991227;28;20514;-65
2022/04/10 02:32:50;;;;;;;5.93;4.40;;;3.80;99.90;;;;;;4990973;28;20479;-66
2022/04/10 02:35:17;;;;;;;5.23;4.43;;;3.80;99.90;;;;;;4990083;28;20813;-66
2022/04/10 02:37:45;;;;;;;4.90;4.00;;;3.80;99.90;;;;;;4991065;28;20945;-65
2022/04/10 02:40:15;;;;;;;5.03;4.50;;;3.80;99.90;;;;;;4991200;28;20957;-65
2022/04/10 02:42:42;;;;;;;5.53;3.77;;;3.70;99.90;;;;;;4992095;28;20470;-66
2022/04/10 02:45:09;;;;;;;8.10;4.40;;;3.60;99.90;;;;;;4990101;28;20485;-65
2022/04/10 02:47:36;;;;;;;8.10;4.47;;;3.60;99.90;;;;;;4991442;28;20450;-65
2022/04/10 02:50:05;;;;;;;5.97;4.57;;;3.60;99.90;;;;;;4990952;28;20501;-65
2022/04/10 02:52:32;;;;;;;5.40;3.70;;;3.50;99.90;;;;;;4990938;28;20471;-66
2022/04/10 02:54:59;;;;;;;6.10;3.97;;;3.40;99.90;;;;;;4990076;28;20451;-65
2022/04/10 02:57:26;;;;;;;5.17;4.30;;;3.40;99.90;;;;;;4990717;28;20876;-65
2022/04/10 02:59:53;;;;;;;6.20;4.30;;;3.30;99.90;;;;;;4990834;28;20455;-65
2022/04/10 03:02:20;;;;;;;11.13;5.10;;;3.30;99.90;;;;;;4990843;28;21135;-65
2022/04/10 03:04:46;;;;;;;7.03;4.57;;;3.20;99.90;;;;;;4990133;28;20454;-65
2022/04/10 03:07:15;;;;;;;6.20;4.90;;;3.30;99.90;;;;;;4990653;28;20450;-65
2022/04/10 03:09:42;;;;;;;6.80;4.40;;;3.30;99.90;;;;;;4990870;28;20478;-66
2022/04/10 03:12:10;;;;;;;5.73;3.90;;;3.30;99.90;;;;;;4991174;28;20469;-65
2022/04/10 03:14:37;;;;;;;8.57;5.70;;;3.20;99.90;;;;;;4990079;28;20447;-65
2022/04/10 03:17:04;;;;;;;6.90;4.70;;;3.20;99.90;;;;;;4990672;28;20869;-65
2022/04/10 03:19:31;;;;;;;6.90;5.67;;;3.10;99.90;;;;;;4990690;28;20457;-64
2022/04/10 03:21:57;;;;;;;7.07;4.97;;;3.10;99.90;;;;;;4990847;28;20549;-65
2022/04/10 03:24:26;;;;;;;8.00;5.60;;;3.10;99.90;;;;;;4990029;28;20994;-65
2022/04/10 03:26:52;;;;;;;6.33;4.70;;;3.10;99.90;;;;;;4991278;28;20956;-65
2022/04/10 03:29:19;;;;;;;10.90;5.23;;;3.00;99.90;;;;;;4991255;28;20442;-65
2022/04/10 03:31:47;;;;;;;6.07;5.00;;;3.00;99.90;;;;;;4991332;28;20486;-65
2022/04/10 03:34:14;;;;;;;7.70;5.50;;;3.00;99.90;;;;;;4990592;28;20832;-65
2022/04/10 03:36:40;;;;;;;5.80;5.13;;;3.10;99.90;;;;;;4990724;28;20456;-65
2022/04/10 03:39:08;;;;;;;10.73;5.40;;;3.00;99.90;;;;;;4990866;28;20455;-65
2022/04/10 03:41:36;;;;;;;6.87;4.60;;;3.00;99.90;;;;;;4990833;28;20553;-66
2022/04/10 03:44:03;;;;;;;8.37;4.87;;;3.00;99.90;;;;;;4989729;28;20462;-63
2022/04/10 03:46:30;;;;;;;5.43;4.57;;;3.00;99.90;;;;;;4993668;28;20459;-65
2022/04/10 03:48:57;;;;;;;6.10;5.30;;;3.00;99.90;;;;;;4994292;28;20949;-64
2022/04/10 03:51:24;;;;;;;6.67;5.67;;;2.90;99.90;;;;;;4993944;28;20559;-65
2022/04/10 03:53:50;;;;;;;7.73;5.90;;;2.90;99.90;;;;;;4994033;28;20498;-65
2022/04/10 03:56:17;;;;;;;6.03;4.57;;;2.90;99.90;;;;;;4993433;28;20474;-64
2022/04/10 03:58:45;;;;;;;7.00;4.27;;;3.00;99.90;;;;;;4994260;28;20455;-64
2022/04/10 04:01:12;;;;;;;7.00;5.20;;;3.00;99.90;;;;;;4994194;28;20530;-65
2022/04/10 04:03:39;;;;;;;8.53;4.97;;;3.00;99.90;;;;;;4993826;28;20470;-64
2022/04/10 04:06:06;;;;;;;7.73;5.00;;;3.00;99.90;;;;;;4992529;28;20463;-65
2022/04/10 04:08:33;;;;;;;9.10;5.30;;;3.00;99.90;;;;;;4994245;28;20828;-65
2022/04/10 04:11:00;;;;;;;9.27;5.40;;;3.00;99.90;;;;;;4993884;28;20490;-65
2022/04/10 04:13:27;;;;;;;11.83;5.70;;;3.00;99.90;;;;;;4993921;28;20478;-64
2022/04/10 04:15:55;;;;;;;7.37;5.33;;;3.00;99.90;;;;;;4992796;28;20458;-64
2022/04/10 04:18:22;;;;;;;6.53;5.13;;;3.10;99.90;;;;;;4993830;28;20454;-65
2022/04/10 04:20:49;;;;;;;7.83;6.03;;;3.20;99.90;;;;;;4993998;28;20451;-64
2022/04/10 04:23:17;;;;;;;6.43;5.00;;;3.20;99.90;;;;;;4994526;28;20508;-65
2022/04/10 04:25:44;;;;;;;6.43;5.40;;;3.20;99.90;;;;;;4992668;28;20964;-65
2022/04/10 04:28:11;;;;;;;6.60;5.20;;;3.20;99.90;;;;;;4993954;28;20482;-64
2022/04/10 04:30:38;;;;;;;7.43;4.77;;;3.30;99.90;;;;;;4993750;28;20478;-65
2022/04/10 04:33:07;;;;;;;8.30;5.50;;;3.20;99.90;;;;;;4993662;28;20557;-64
2022/04/10 04:35:34;;;;;;;10.43;5.80;;;3.30;99.90;;;;;;4992130;28;20450;-65
2022/04/10 04:38:01;;;;;;;6.73;5.80;;;3.30;99.90;;;;;;4993648;28;20863;-64
2022/04/10 04:40:28;;;;;;;6.03;5.20;;;3.40;99.90;;;;;;4993317;28;20455;-65
2022/04/10 04:42:55;;;;;;;10.30;6.50;;;3.40;99.90;;;;;;4993291;28;20471;-64
2022/04/10 04:45:22;;;;;;;6.33;5.30;;;3.50;99.90;;;;;;4992101;28;20459;-65
2022/04/10 04:47:49;;;;;;;8.20;5.87;;;3.50;99.90;;;;;;4993230;28;20516;-65
2022/04/10 04:50:17;;;;;;;7.37;5.37;;;3.60;99.90;;;;;;4993113;28;20454;-65
2022/04/10 04:52:44;;;;;;;6.97;5.37;;;3.60;99.90;;;;;;4993055;28;20473;-65
2022/04/10 04:55:11;;;;;;;10.63;5.93;;;3.70;99.90;;;;;;4991927;28;20960;-63
2022/04/10 04:57:38;;;;;;;9.83;6.20;;;3.80;99.90;;;;;;4993431;28;20937;-65
2022/04/10 05:00:06;;;;;;;6.53;5.80;;;3.90;99.90;;;;;;4993956;28;20518;-65
2022/04/10 05:02:33;;;;;;;7.40;5.60;;;3.90;99.90;;;;;;4994130;28;20498;-65
2022/04/10 05:04:59;;;;;;;7.10;5.43;;;3.90;99.90;;;;;;4992739;28;20645;-65
2022/04/10 05:07:28;;;;;;;6.00;4.93;;;4.00;99.90;;;;;;4992765;28;20535;-64
2022/04/10 05:09:54;;;;;;;5.83;5.13;;;4.00;99.90;;;;;;4993219;28;20573;-64
2022/04/10 05:12:21;;;;;;;6.13;5.43;;;4.00;99.90;;;;;;4992741;28;20482;-65
2022/04/10 05:14:48;;;;;;;7.60;5.80;;;4.10;99.90;;;;;;4992025;28;20451;-65
2022/04/10 05:17:15;;;;;;;8.73;5.40;;;4.10;99.90;;;;;;4992504;28;20455;-65
2022/04/10 05:19:41;;;;;;;6.23;5.50;;;4.20;99.90;;;;;;4992668;28;20483;-65
2022/04/10 05:22:08;;;;;;;6.63;5.50;;;4.20;99.90;;;;;;4992804;28;20467;-65
2022/04/10 05:24:37;;;;;;;6.60;5.90;;;4.30;99.90;;;;;;4991711;28;20554;-65
2022/04/10 05:27:04;;;;;;;7.03;5.60;;;4.30;99.90;;;;;;4992229;28;20455;-65
2022/04/10 05:29:30;;;;;;;6.73;5.73;;;4.40;99.90;;;;;;4992411;28;20949;-65
2022/04/10 05:31:57;;;;;;;5.33;4.83;;;4.40;99.90;;;;;;4992509;28;20482;-65
2022/04/10 05:34:24;;;;;;;6.33;5.40;;;4.40;99.90;;;;;;4991580;28;20450;-64
2022/04/10 05:36:51;;;;;;;7.53;5.73;;;4.40;99.90;;;;;;4992113;28;20550;-65
2022/04/10 05:39:18;;;;;;;7.00;6.10;;;4.50;99.90;;;;;;4992173;28;20485;-64
2022/04/10 05:41:46;;;;;;;7.83;6.00;;;4.60;99.90;;;;;;4991943;28;20846;-65
2022/04/10 05:44:13;;;;;;;6.13;5.43;;;4.60;99.90;;;;;;4991575;28;21036;-65
2022/04/10 05:46:40;;;;;;;6.67;4.97;;;4.70;99.90;;;;;;4991945;28;20450;-65
2022/04/10 05:49:06;;;;;;;6.93;5.80;;;4.70;99.90;;;;;;4992200;28;20494;-64
2022/04/10 05:51:33;;;;;;;8.50;6.23;;;4.70;99.90;;;;;;4992003;28;21027;-65
2022/04/10 05:54:00;;;;;;;6.37;5.30;;;4.70;99.90;;;;;;4991735;28;20471;-64
2022/04/10 05:56:27;;;;;;;7.33;5.40;;;4.70;99.90;;;;;;4990678;28;20945;-65
2022/04/10 05:58:55;;;;;;;7.80;5.67;;;4.70;99.90;;;;;;4992069;28;20455;-64
2022/04/10 06:01:23;;;;;;;6.30;5.63;;;4.70;99.90;;;;;;4992053;28;20447;-64
2022/04/10 06:03:50;;;;;;;6.17;5.40;;;4.90;99.90;;;;;;4991891;28;20475;-64
2022/04/10 06:06:19;;;;;;;9.60;6.40;;;5.00;99.90;;;;;;4990761;28;20446;-65
2022/04/10 06:08:46;;;;;;;9.07;6.10;;;5.20;99.90;;;;;;4991138;28;20453;-65
2022/04/10 06:11:12;;;;;;;10.20;5.70;;;5.40;99.90;;;;;;4991506;28;20485;-65
2022/04/10 06:13:39;;;;;;;6.27;5.37;;;5.50;99.90;;;;;;4991562;28;20470;-65
2022/04/10 06:16:07;;;;;;;9.90;6.33;;;5.70;99.90;;;;;;4990412;28;20529;-65
2022/04/10 06:18:34;;;;;;;8.03;5.57;;;5.70;99.90;;;;;;4991892;28;20473;-65
2022/04/10 06:21:01;;;;;;;6.87;4.93;;;5.80;99.90;;;;;;4991498;28;20860;-65
2022/04/10 06:23:28;;;;;;;7.67;5.13;;;5.90;99.90;;;;;;4991366;28;20481;-65
2022/04/10 06:25:55;;;;;;;8.53;5.20;;;6.00;99.90;;;;;;4990455;28;20478;-65
2022/04/10 06:28:22;;;;;;;6.77;5.73;;;6.10;99.90;;;;;;4991519;28;20874;-65
2022/04/10 06:30:48;;;;;;;5.40;4.83;;;6.20;99.90;;;;;;4991204;28;20455;-65
2022/04/10 06:33:17;;;;;;;7.70;5.23;;;6.30;99.90;;;;;;4991264;28;20470;-64
2022/04/10 06:35:44;;;;;;;6.27;5.67;;;6.40;99.90;;;;;;4990003;28;20458;-65
2022/04/10 06:38:11;;;;;;;5.87;4.63;;;6.40;99.90;;;;;;4991189;28;20463;-65
2022/04/10 06:40:38;;;;;;;7.80;5.17;;;6.50;99.90;;;;;;4991116;28;20545;-65
2022/04/10 06:43:07;;;;;;;8.30;4.77;;;6.60;99.90;;;;;;4991311;28;20569;-66
2022/04/10 06:45:34;;;;;;;5.17;4.50;;;6.50;99.90;;;;;;4990136;28;21008;-65
2022/04/10 06:48:02;;;;;;;9.33;5.30;;;6.60;99.90;;;;;;4991475;28;21007;-65
2022/04/10 06:50:30;;;;;;;6.47;4.57;;;6.70;99.90;;;;;;4991134;28;20487;-64
2022/04/10 06:52:57;;;;;;;6.03;4.57;;;6.80;99.90;;;;;;4991236;28;20565;-65
2022/04/10 06:55:24;;;;;;;5.77;4.77;;;6.80;99.90;;;;;;4990479;28;20447;-65
2022/04/10 06:57:51;;;;;;;5.70;5.10;;;6.90;99.90;;;;;;4991051;28;20534;-65
2022/04/10 07:00:18;;;;;;;7.50;5.80;;;6.90;99.90;;;;;;4991052;28;20945;-65
2022/04/10 07:02:45;;;;;;;6.17;4.53;;;7.10;99.90;;;;;;4990837;28;20462;-65
2022/04/10 07:05:11;;;;;;;7.60;4.80;;;7.20;99.90;;;;;;4989976;28;20978;-64
2022/04/10 07:07:40;;;;;;;6.10;5.00;;;7.40;99.90;;;;;;4990453;28;20459;-65
2022/04/10 07:10:07;;;;;;;7.03;4.50;;;7.50;99.90;;;;;;4990738;28;20451;-64
2022/04/10 07:12:34;;;;;;;6.27;4.77;;;7.60;99.90;;;;;;4990618;28;20494;-65
2022/04/10 07:15:02;;;;;;;7.33;4.53;;;7.60;99.90;;;;;;4990421;28;20455;-65
2022/04/10 07:17:29;;;;;;;5.60;4.53;;;7.60;99.90;;;;;;4991630;28;20484;-65
2022/04/10 07:19:56;;;;;;;5.87;4.17;;;7.60;99.90;;;;;;4989573;28;20483;-65
2022/04/10 07:25:09;;;;;;;7.47;4.93;;;7.70;99.90;;;;;;4990379;28;20422;-64
2022/04/10 07:27:36;;;;;;;7.90;5.10;;;7.80;99.90;;;;;;4990463;28;20461;-64
2022/04/10 07:30:04;;;;;;;7.43;4.53;;;7.90;99.90;;;;;;4990396;28;20446;-65
2022/04/10 07:32:31;;;;;;;5.80;4.17;;;8.10;99.90;;;;;;4990467;28;20581;-65
2022/04/10 07:35:01;;;;;;;7.33;4.30;;;8.30;99.90;;;;;;4990314;28;20447;-65
2022/04/10 07:37:28;;;;;;;7.60;5.97;;;8.50;99.90;;;;;;4990582;28;20467;-65
2022/04/10 07:39:55;;;;;;;6.90;4.80;;;8.70;99.90;;;;;;4990352;28;20458;-65
2022/04/10 07:42:23;;;;;;;5.60;4.77;;;8.80;99.90;;;;;;4990538;28;20462;-68
2022/04/10 07:44:54;;;;;;;6.23;4.20;;;8.80;99.90;;;;;;4989979;28;21062;-65
2022/04/10 07:47:26;;;;;;;6.10;5.07;;;8.90;99.90;;;;;;4990694;28;20452;-65
2022/04/10 07:49:54;;;;;;;5.70;4.70;;;8.80;99.90;;;;;;5005303;28;20450;-65
2022/04/10 07:52:21;;;;;;;6.40;4.70;;;8.80;99.90;;;;;;5006629;28;20477;-65
2022/04/10 07:54:48;;;;;;;7.70;5.20;;;8.90;99.90;;;;;;5003742;28;20449;-64
2022/04/10 07:57:16;;;;;;;8.77;4.87;;;8.90;99.90;;;;;;5003898;28;20538;-64
2022/04/10 07:59:44;;;;;;;6.50;5.57;;;8.90;99.90;;;;;;5009938;28;20458;-62
2022/04/10 08:02:12;;;;;;;6.10;5.27;;;8.90;99.90;;;;;;5009442;28;20439;-65
2022/04/10 08:04:38;;;;;;;5.70;5.20;;;8.80;99.90;;;;;;5009831;28;20541;-64
2022/04/10 08:07:06;;;;;;;6.53;4.60;;;8.70;99.90;;;;;;5010114;28;20452;-64
2022/04/10 08:09:33;;;;;;;6.90;4.30;;;8.60;99.90;;;;;;5010404;28;20464;-63
2022/04/10 08:12:00;;;;;;;5.60;4.93;;;8.60;99.90;;;;;;5010061;28;20509;-63
2022/04/10 08:14:27;;;;;;;5.70;4.37;;;8.70;99.90;;;;;;5010152;28;20446;-65
2022/04/10 08:16:55;;;;;;;6.67;4.37;;;8.80;99.90;;;;;;5010193;28;20504;-65
2022/04/10 08:19:22;;;;;;;5.87;4.40;;;8.90;99.90;;;;;;5010164;28;20525;-64
2022/04/10 08:21:49;;;;;;;5.47;4.13;;;9.00;99.90;;;;;;5009797;28;20468;-64
2022/04/10 08:24:15;;;;;;;4.87;4.20;;;9.00;99.90;;;;;;5008566;28;20458;-67
2022/04/10 08:26:43;;;;;;;6.80;4.30;;;9.20;99.90;;;;;;5012835;28;20454;-65
2022/04/10 08:29:09;;;;;;;6.37;4.97;;;9.40;99.90;;;;;;4997030;28;20450;-65
2022/04/10 08:31:36;;;;;;;6.73;4.33;;;9.60;99.90;;;;;;5005285;28;20571;-69
2022/04/10 08:34:05;;;;;;;5.97;4.63;;;9.80;99.90;;;;;;5008596;28;20948;-64
2022/04/10 08:36:33;;;;;;;6.70;4.53;;;9.90;99.90;;;;;;5011463;28;20442;-65
2022/04/10 08:38:59;;;;;;;8.90;5.07;;;9.90;99.90;;;;;;5004165;28;20458;-64
2022/04/10 08:41:31;;;;;;;5.30;4.63;;;9.80;99.90;;;;;;5003818;28;20529;-66
2022/04/10 08:44:01;;;;;;;5.63;4.93;;;9.80;99.90;;;;;;5011032;28;20584;-66
2022/04/10 08:46:28;;;;;;;5.93;4.50;;;9.70;99.90;;;;;;5011152;28;20896;-66
2022/04/10 08:48:58;;;;;;;7.43;5.17;;;9.60;99.90;;;;;;5008977;28;20497;-65
2022/04/10 08:51:28;;;;;;;5.73;4.27;;;9.60;99.90;;;;;;5009117;28;20450;-65
2022/04/10 08:53:56;;;;;;;7.73;5.40;;;9.70;99.90;;;;;;5009210;28;20499;-66
2022/04/10 08:56:24;;;;;;;6.30;4.60;;;9.90;99.90;;;;;;5005498;28;20981;-65
2022/04/10 08:58:51;;;;;;;6.87;4.57;;;10.00;99.90;;;;;;5006662;28;20936;-66
2022/04/10 09:01:20;;;;;;;6.93;5.27;;;10.10;99.90;;;;;;5010265;28;20450;-64
2022/04/10 09:03:48;;;;;;;6.57;5.13;;;10.20;99.90;;;;;;5011149;28;20473;-66
2022/04/10 09:06:16;;;;;;;6.73;5.03;;;10.10;99.90;;;;;;5011051;28;20457;-70
2022/04/10 09:08:44;;;;;;;5.70;4.70;;;10.10;99.90;;;;;;5005009;28;20537;-66
2022/04/10 09:11:12;;;;;;;5.93;5.00;;;10.10;99.90;;;;;;5004237;28;20474;-66
2022/04/10 09:13:41;;;;;;;8.20;4.80;;;10.10;99.90;;;;;;5000560;28;20637;-65
2022/04/10 09:16:11;;;;;;;6.17;5.20;;;9.80;99.90;;;;;;5002422;28;20462;-67
2022/04/10 09:18:53;;;;;;;10.03;5.23;;;9.70;99.90;;;;;;5002328;28;20446;-65
2022/04/10 09:21:23;;;;;;;5.43;4.47;;;9.90;99.90;;;;;;5002096;28;20920;-66
2022/04/10 09:24:02;;;;;;;6.70;5.00;;;10.10;99.90;;;;;;5004362;28;20467;-65
2022/04/10 09:26:45;;;;;;;6.13;4.70;;;10.30;99.90;;;;;;5002180;28;20473;-65
2022/04/10 09:29:12;;;;;;;5.57;5.07;;;10.40;99.80;;;;;;5002298;28;20866;-64
2022/04/10 09:31:39;;;;;;;7.53;4.80;;;10.10;99.90;;;;;;5003510;28;21119;-65
2022/04/10 09:34:08;;;;;;;6.87;4.77;;;10.00;99.90;;;;;;5006502;28;20446;-66
2022/04/10 09:36:39;;;;;;;6.03;4.47;;;10.20;99.90;;;;;;5004355;28;21176;-65
2022/04/10 09:39:10;;;;;;;6.97;5.40;;;10.40;99.90;;;;;;4998183;28;20460;-66
2022/04/10 09:41:38;;;;;;;6.43;5.10;;;10.50;99.90;;;;;;4998554;28;20454;-70
2022/04/10 09:44:13;;;;;;;6.20;5.03;;;10.70;99.90;;;;;;5007848;28;20888;-64
2022/04/10 09:46:41;;;;;;;6.50;4.87;;;11.10;99.90;;;;;;5011245;28;20446;-64
2022/04/10 09:49:14;;;;;;;9.63;4.73;;;11.20;97.90;;;;;;5011591;28;20460;-64
2022/04/10 09:52:00;;;;;;;6.00;4.23;;;11.50;99.60;;;;;;5001486;28;20532;-64
2022/04/10 09:54:37;;;;;;;6.10;4.20;;;11.90;96.90;;;;;;5003729;28;20450;-65
2022/04/10 09:57:05;;;;;;;6.43;4.87;;;11.80;96.80;;;;;;5010976;28;20448;-65
2022/04/10 09:59:37;;;;;;;7.33;5.33;;;11.60;95.90;;;;;;5007751;28;20450;-66
2022/04/10 10:02:06;;;;;;;8.60;5.27;;;11.10;96.20;;;;;;5006081;28;20545;-64
2022/04/10 10:04:37;;;;;;;5.63;3.90;;;10.80;98.00;;;;;;5004381;28;20564;-60
2022/04/10 10:07:06;;;;;;;7.20;4.10;;;10.50;95.50;;;;;;5006403;28;20481;-65
2022/04/10 10:09:34;;;;;;;5.77;4.17;;;10.30;95.90;;;;;;5010404;28;20516;-65
2022/04/10 10:12:03;;;;;;;5.03;3.87;;;10.00;96.50;;;;;;5010533;28;20548;-66
2022/04/10 10:14:31;;;;;;;5.70;4.60;;;9.90;98.40;;;;;;5011146;28;20690;-66
2022/04/10 10:16:59;;;;;;;5.00;4.50;;;10.40;98.50;;;;;;5009321;28;20890;-66
2022/04/10 10:19:26;;;;;;;5.63;3.27;;;10.80;98.90;;;;;;5010931;28;20503;-65
2022/04/10 10:21:53;;;;;;;5.90;3.93;;;11.10;96.90;;;;;;5011150;28;20828;-65
2022/04/10 10:24:23;;;;;;;4.90;3.50;;;11.00;94.50;;;;;;5010850;28;20458;-66
2022/04/10 10:27:07;;;;;;;6.23;4.10;;;10.50;95.70;;;;;;5011294;28;20445;-65
2022/04/10 10:29:54;;;;;;;6.50;4.77;;;9.80;97.20;;;;;;5011103;28;20839;-65
2022/04/10 10:32:39;;;;;;;7.97;5.10;;;9.00;99.90;;;;;;5011086;28;20969;-66
2022/04/10 10:35:07;;;;;;;5.47;4.43;;;8.60;99.90;;;;;;5010767;28;20876;-66
2022/04/10 10:37:49;;;;;;;5.17;3.83;;;8.40;99.90;;;;;;5010872;28;20516;-66
2022/04/10 10:40:18;;;;;;;7.00;5.30;;;8.50;99.90;;;;;;5010835;28;20465;-66
2022/04/10 10:42:47;;;;;;;6.63;4.10;;;8.80;99.90;;;;;;5011086;28;20986;-65
2022/04/10 10:45:40;;;;;;;6.13;4.50;;;9.10;99.90;;;;;;5010834;28;20585;-66
2022/04/10 10:48:42;;;;;;;9.67;4.80;;;9.30;99.90;;;;;;5011368;28;20524;-66
2022/04/10 10:51:41;;;;;;;6.50;4.60;;;9.40;99.90;;;;;;5011079;28;20449;-64
2022/04/10 10:54:11;;;;;;;5.83;4.40;;;9.40;99.90;;;;;;5010148;28;21088;-64
2022/04/10 10:56:39;;;;;;;5.13;4.40;;;9.80;99.90;;;;;;5010573;28;20486;-65
2022/04/10 10:59:35;;;;;;;7.03;3.93;;;10.10;99.00;;;;;;5010645;28;20476;-65
2022/04/10 11:02:06;;;;;;;6.17;4.20;;;10.70;99.40;;;;;;5010366;28;20462;-65
2022/04/10 11:04:40;;;;;;;4.43;3.73;;;11.70;99.90;;;;;;5010189;28;20549;-63
2022/04/10 11:07:15;;;;;;;4.57;4.07;;;12.40;99.90;;;;;;5010636;28;20457;-65
2022/04/10 11:09:59;;;;;;;5.60;4.23;;;12.60;98.60;;;;;;5010306;28;20830;-65
2022/04/10 11:12:33;;;;;;;5.10;3.23;;;13.30;97.30;;;;;;5010222;28;20865;-65
2022/04/10 11:15:12;;;;;;;5.70;3.00;;;13.30;93.90;;;;;;5009904;28;20532;-64
2022/04/10 11:17:40;;;;;;;4.63;3.43;;;12.20;93.20;;;;;;5010266;28;20460;-65
2022/04/10 11:20:09;;;;;;;8.53;3.30;;;11.90;94.40;;;;;;5010261;28;20450;-65
2022/04/10 11:22:39;;;;;;;4.63;2.77;;;11.60;94.60;;;;;;5010151;28;20903;-66
2022/04/10 11:25:08;;;;;;;4.87;3.30;;;11.50;93.70;;;;;;5009854;28;20969;-66
2022/04/10 11:27:51;;;;;;;4.10;2.80;;;11.70;93.10;;;;;;5009929;28;20488;-66
2022/04/10 11:30:24;;;;;;;5.30;2.70;;;12.50;93.60;;;;;;5009932;28;20481;-65
2022/04/10 11:32:53;;;;;;;6.50;4.07;;;13.40;94.20;;;;;;5010338;28;20485;-66
2022/04/10 11:35:22;;;;;;;5.33;4.40;;;13.20;92.50;;;;;;5009774;28;20544;-66
2022/04/10 11:37:51;;;;;;;6.20;4.37;;;12.90;92.30;;;;;;5009953;28;20458;-66
2022/04/10 11:40:19;;;;;;;5.20;4.70;;;12.60;92.40;;;;;;5009789;28;20464;-65
2022/04/10 11:42:47;;;;;;;7.13;4.80;;;12.60;92.40;;;;;;5010085;28;20557;-66
2022/04/10 11:45:14;;;;;;;6.40;5.37;;;12.90;93.20;;;;;;5009464;28;20560;-67
2022/04/10 11:47:43;;;;;;;5.70;5.00;;;13.40;93.20;;;;;;5009995;28;20441;-65
2022/04/10 11:50:13;;;;;;;4.40;4.00;;;14.20;91.80;;;;;;5009953;28;20484;-65
2022/04/10 11:52:41;;;;;;;7.30;5.13;;;14.80;91.10;;;;;;5009721;28;20536;-66
2022/04/10 11:55:09;;;;;;;8.50;5.40;;;15.00;89.20;;;;;;5009549;28;20944;-66
2022/04/10 11:57:39;;;;;;;6.93;4.80;;;14.40;90.60;;;;;;5010081;28;20810;-66
2022/04/10 12:00:10;;;;;;;6.80;5.67;;;13.20;91.40;;;;;;5009858;28;20480;-66
2022/04/10 12:02:39;;;;;;;8.50;4.27;;;12.80;92.90;;;;;;5009765;28;20470;-66
2022/04/10 12:05:08;;;;;;;7.37;4.40;;;12.30;92.30;;;;;;5009604;28;20824;-66
2022/04/10 12:07:36;;;;;;;6.23;4.27;;;12.40;92.30;;;;;;5013566;28;20445;-66
2022/04/10 12:10:03;;;;;;;6.33;5.73;;;12.80;92.50;;;;;;5013694;28;20464;-66
2022/04/10 12:12:39;;;;;;;6.57;4.40;;;12.50;92.80;;;;;;5013416;28;20466;-66
2022/04/10 12:15:16;;;;;;;6.20;4.67;;;11.60;93.40;;;;;;5013028;28;20441;-66
2022/04/10 12:17:43;;;;;;;4.90;4.13;;;10.90;94.10;;;;;;5013292;28;20891;-66
2022/04/10 12:20:13;;;;;;;4.83;3.73;;;10.50;96.60;;;;;;5013577;28;20871;-65
2022/04/10 12:22:40;;;;;;;5.13;4.10;;;10.20;96.30;;;;;;5013320;28;20512;-65
2022/04/10 12:25:08;;;;;;;5.53;4.40;;;9.90;98.80;;;;;;5013246;28;20449;-66
2022/04/10 12:27:36;;;;;;;5.97;5.27;;;9.70;99.90;;;;;;5013378;28;20971;-66
2022/04/10 12:30:09;;;;;;;6.20;5.23;;;9.30;99.90;;;;;;5013119;28;20962;-66
2022/04/10 12:32:37;;;;;;;7.53;5.93;;;9.30;99.90;;;;;;5013434;28;20552;-65
2022/04/10 12:35:08;;;;;;;7.73;5.50;;;9.40;99.90;;;;;;5013078;28;20449;-66
2022/04/10 12:37:37;;;;;;;7.03;5.07;;;9.40;99.90;;;;;;5012511;28;20445;-66
2022/04/10 12:40:05;;;;;;;5.57;4.57;;;9.40;99.90;;;;;;5012559;28;20465;-66
2022/04/10 12:42:39;;;;;;;4.17;3.33;;;9.70;99.90;;;;;;5012583;28;20930;-66
2022/04/10 12:45:08;;;;;;;4.90;3.80;;;9.90;99.90;;;;;;5011290;28;20451;-66
2022/04/10 12:47:46;;;;;;;4.57;4.03;;;9.80;99.90;;;;;;5012923;28;20456;-66
2022/04/10 12:50:15;;;;;;;5.33;4.10;;;9.90;99.90;;;;;;5012861;28;20537;-65
2022/04/10 12:52:44;;;;;;;5.30;3.87;;;10.20;99.90;;;;;;5012641;28;20469;-66
2022/04/10 12:55:19;;;;;;;4.40;3.70;;;10.80;99.90;;;;;;5012544;28;20453;-66
2022/04/10 12:57:56;;;;;;;5.57;3.77;;;11.70;99.90;;;;;;5012806;28;20456;-66
2022/04/10 13:00:28;;;;;;;4.10;2.77;;;13.00;98.70;;;;;;5013141;28;20817;-65
2022/04/10 13:02:55;;;;;;;4.00;2.97;;;13.80;94.00;;;;;;5012987;28;20473;-66
2022/04/10 13:05:23;;;;;;;3.77;2.93;;;13.50;93.70;;;;;;5012617;28;20532;-65